Time;durP1;ratioP1;P1;durP2;ratioP2;P2;SDS_P1;SDS_P2;PMS_P1;PMS_P2;Temp;Humidity;BMP_temperature;BMP_pressure;BME280_temperature;BME280_humidity;BME280_pressure;Samples;Min_cycle;Max_cycle;Signal;HPM_P1;HPM_P2
2023/07/06 00:01:48;;;;;;;8.00;3.40;;;14.10;99.90;;;;;;4982096;28;20217;-70
2023/07/06 00:04:15;;;;;;;5.30;3.37;;;14.10;99.90;;;;;;4987819;28;20640;-69
2023/07/06 00:06:43;;;;;;;3.50;2.80;;;14.10;99.90;;;;;;4969475;28;20229;-68
2023/07/06 00:09:12;;;;;;;4.17;3.00;;;14.10;99.90;;;;;;4969966;28;20241;-69
2023/07/06 00:11:41;;;;;;;5.77;2.63;;;14.10;99.90;;;;;;4985418;28;20198;-68
2023/07/06 00:14:11;;;;;;;5.53;2.90;;;14.10;99.90;;;;;;4986065;28;20202;-68
2023/07/06 00:16:41;;;;;;;6.20;2.83;;;14.10;99.90;;;;;;4968612;28;20932;-68
2023/07/06 00:19:09;;;;;;;3.83;2.53;;;14.00;99.90;;;;;;4987178;28;20215;-69
2023/07/06 00:21:36;;;;;;;3.87;2.07;;;14.00;99.90;;;;;;4985681;28;20582;-69
2023/07/06 00:24:04;;;;;;;6.67;2.53;;;14.00;99.90;;;;;;4967725;28;20771;-69
2023/07/06 00:26:31;;;;;;;5.50;2.50;;;13.90;99.90;;;;;;4986100;28;20284;-69
2023/07/06 00:28:58;;;;;;;4.63;2.10;;;13.90;99.90;;;;;;4986578;28;20205;-68
2023/07/06 00:31:32;;;;;;;4.60;2.33;;;14.00;99.90;;;;;;4970467;28;20198;-69
2023/07/06 00:34:07;;;;;;;3.80;2.27;;;14.00;99.90;;;;;;4972687;28;20235;-69
2023/07/06 00:36:35;;;;;;;4.60;2.13;;;14.00;99.90;;;;;;4987592;28;20220;-68
2023/07/06 00:39:03;;;;;;;3.43;2.13;;;14.00;99.90;;;;;;4986371;28;20229;-70
2023/07/06 00:41:31;;;;;;;4.73;2.40;;;14.00;99.90;;;;;;4984522;28;20582;-67
2023/07/06 00:43:59;;;;;;;3.87;2.40;;;14.00;99.90;;;;;;4984645;28;20206;-60
2023/07/06 00:46:39;;;;;;;5.53;2.80;;;14.00;99.90;;;;;;4969475;28;20316;-61
2023/07/06 00:49:15;;;;;;;4.13;2.23;;;14.00;99.90;;;;;;4972458;28;20212;-68
2023/07/06 00:51:44;;;;;;;4.60;2.17;;;14.00;99.90;;;;;;4976239;28;20275;-69
2023/07/06 00:54:16;;;;;;;5.03;2.10;;;14.00;99.90;;;;;;4988616;28;20209;-69
2023/07/06 00:56:46;;;;;;;2.93;2.30;;;13.90;99.90;;;;;;4971537;28;20210;-69
2023/07/06 00:59:19;;;;;;;6.00;3.67;;;13.90;99.90;;;;;;4978353;28;20217;-69
2023/07/06 01:01:47;;;;;;;3.20;2.20;;;14.00;99.90;;;;;;4967636;28;20245;-69
2023/07/06 01:04:17;;;;;;;3.60;2.83;;;13.90;99.90;;;;;;5007070;22;20235;-67
2023/07/06 01:06:49;;;;;;;5.50;2.40;;;13.80;99.90;;;;;;5020793;28;20219;-67
2023/07/06 01:09:17;;;;;;;4.53;2.70;;;13.70;99.90;;;;;;5022871;28;20218;-67
2023/07/06 01:11:44;;;;;;;4.53;2.70;;;13.80;99.90;;;;;;5040744;28;20308;-68
2023/07/06 01:14:14;;;;;;;3.33;2.40;;;13.80;99.90;;;;;;5042016;28;20705;-67
2023/07/06 01:17:07;;;;;;;3.07;2.30;;;13.80;99.90;;;;;;5026504;28;20223;-67
2023/07/06 01:19:54;;;;;;;4.20;2.93;;;13.80;99.90;;;;;;5028355;28;20760;-68
2023/07/06 01:22:53;;;;;;;2.77;2.33;;;13.70;99.90;;;;;;5021058;28;20201;-68
2023/07/06 01:25:20;;;;;;;3.00;2.47;;;13.60;99.90;;;;;;5026562;28;20207;-66
2023/07/06 01:28:09;;;;;;;6.30;2.60;;;13.60;99.90;;;;;;5042471;28;20195;-66
2023/07/06 01:30:56;;;;;;;4.27;2.63;;;13.50;99.90;;;;;;5041974;28;20210;-66
2023/07/06 01:33:53;;;;;;;2.97;2.60;;;13.50;99.90;;;;;;5044582;28;20466;-67
2023/07/06 01:36:34;;;;;;;7.43;2.60;;;13.50;99.90;;;;;;5025423;28;20345;-66
2023/07/06 01:39:16;;;;;;;5.13;3.40;;;13.50;99.90;;;;;;5042109;28;20280;-66
2023/07/06 01:41:45;;;;;;;4.83;2.43;;;13.50;99.90;;;;;;5026445;28;20199;-66
2023/07/06 01:44:16;;;;;;;3.37;2.37;;;13.50;99.90;;;;;;5012816;28;20204;-67
2023/07/06 01:46:51;;;;;;;5.63;2.30;;;13.40;99.90;;;;;;5027502;28;20199;-70
2023/07/06 01:49:18;;;;;;;4.53;2.60;;;13.30;99.90;;;;;;5028173;28;20222;-69
2023/07/06 01:52:16;;;;;;;3.17;2.40;;;13.20;99.90;;;;;;5036360;28;20222;-70
2023/07/06 01:54:58;;;;;;;3.53;2.10;;;13.10;99.90;;;;;;5008871;28;20193;-69
2023/07/06 01:57:33;;;;;;;2.83;2.53;;;13.00;99.90;;;;;;5011368;28;20231;-69
